createdAt,value
2022-08-28T00:00:46.836Z,42.24
2022-08-28T00:01:46.800Z,40.89
2022-08-28T00:02:46.866Z,37.98
2022-08-28T00:03:46.786Z,41.14
2022-08-28T00:04:46.944Z,37.07
2022-08-28T00:05:46.816Z,46.47
2022-08-28T00:06:46.765Z,37.61
2022-08-28T00:07:47.955Z,42.71
2022-08-28T00:08:47.750Z,47.91
2022-08-28T00:09:46.734Z,45.74
2022-08-28T00:10:46.755Z,34.13
2022-08-28T00:11:46.736Z,37.26
2022-08-28T00:12:46.710Z,40.24
2022-08-28T00:13:46.703Z,37.74
2022-08-28T00:14:46.712Z,43.83
2022-08-28T00:15:46.761Z,53.76
2022-08-28T00:16:46.682Z,42.76
2022-08-28T00:17:46.680Z,41.98
2022-08-28T00:18:47.102Z,43.39
2022-08-28T00:19:46.659Z,35.86
2022-08-28T00:20:46.676Z,34.90
2022-08-28T00:21:46.646Z,40.01
2022-08-28T00:22:46.640Z,47.91
2022-08-28T00:23:46.627Z,39.87
2022-08-28T00:24:46.623Z,40.50
2022-08-28T00:25:46.641Z,44.88
2022-08-28T00:26:46.619Z,51.90
2022-08-28T00:27:46.598Z,42.78
2022-08-28T00:28:46.589Z,42.12
2022-08-28T00:29:46.580Z,54.66
2022-08-28T00:30:46.606Z,42.04
2022-08-28T00:31:46.618Z,34.01
2022-08-28T00:32:46.557Z,32.15
2022-08-28T00:33:48.199Z,38.18
2022-08-28T00:34:47.543Z,32.38
2022-08-28T00:35:46.559Z,38.82
2022-08-28T00:36:46.534Z,32.96
2022-08-28T00:37:46.531Z,38.59
2022-08-28T00:38:46.515Z,37.12
2022-08-28T00:39:46.517Z,39.58
2022-08-28T00:40:46.556Z,34.81
2022-08-28T00:41:46.492Z,35.94
2022-08-28T00:42:46.484Z,31.32
2022-08-28T00:43:46.474Z,30.58
2022-08-28T00:44:46.475Z,36.74
2022-08-28T00:45:46.491Z,40.98
2022-08-28T00:46:46.511Z,34.79
2022-08-28T00:47:46.447Z,48.43
2022-08-28T00:48:46.438Z,34.50
2022-08-28T00:49:46.429Z,35.73
2022-08-28T00:50:46.420Z,39.63
2022-08-28T00:51:46.439Z,35.23
2022-08-28T00:52:46.403Z,53.26
2022-08-28T00:53:46.400Z,39.03
2022-08-28T00:54:58.936Z,38.88
2022-08-28T00:55:47.375Z,30.82
2022-08-28T00:56:46.394Z,39.48
2022-08-28T00:57:46.366Z,37.64
2022-08-28T00:58:46.355Z,32.87
2022-08-28T00:59:46.345Z,31.69
2022-08-28T01:00:46.340Z,36.34
2022-08-28T01:01:46.554Z,39.52
2022-08-28T01:02:46.394Z,43.06
2022-08-28T01:03:46.316Z,40.19
2022-08-28T01:04:46.308Z,35.55
2022-08-28T01:05:46.301Z,43.02
2022-08-28T01:06:46.318Z,32.40
2022-08-28T01:07:46.282Z,42.95
2022-08-28T01:08:46.280Z,36.61
2022-08-28T01:09:46.275Z,32.06
2022-08-28T01:10:46.261Z,38.03
2022-08-28T01:11:46.278Z,32.94
2022-08-28T01:12:46.249Z,33.49
2022-08-28T01:13:46.238Z,34.24
2022-08-28T01:14:46.229Z,33.35
2022-08-28T01:15:46.248Z,32.20
2022-08-28T01:16:46.240Z,36.83
2022-08-28T01:17:46.207Z,43.05
2022-08-28T01:18:46.194Z,36.19
2022-08-28T01:19:46.190Z,34.65
2022-08-28T01:20:46.182Z,32.36
2022-08-28T01:21:46.198Z,40.52
2022-08-28T01:22:46.168Z,34.97
2022-08-28T01:23:46.155Z,36.56
2022-08-28T01:24:46.154Z,40.79
2022-08-28T01:25:46.132Z,42.00
2022-08-28T01:26:47.164Z,30.77
2022-08-28T01:27:46.121Z,31.34
2022-08-28T01:28:46.116Z,33.15
2022-08-28T01:29:48.012Z,32.16
2022-08-28T01:30:46.153Z,39.19
2022-08-28T01:31:46.124Z,40.55
2022-08-28T01:32:46.085Z,51.03
2022-08-28T01:33:46.078Z,31.36
2022-08-28T01:34:46.072Z,37.07
2022-08-28T01:35:46.063Z,30.61
2022-08-28T01:36:46.090Z,37.12
2022-08-28T01:37:46.047Z,31.10
2022-08-28T01:38:46.036Z,35.76
2022-08-28T01:39:46.034Z,31.26
2022-08-28T01:40:46.022Z,32.55
2022-08-28T01:41:47.038Z,37.63
2022-08-28T01:42:46.012Z,38.30
2022-08-28T01:43:46.002Z,37.69
2022-08-28T01:44:45.994Z,38.33
2022-08-28T01:45:45.988Z,40.95
2022-08-28T01:46:46.111Z,38.59
2022-08-28T01:47:45.972Z,32.75
2022-08-28T01:48:45.967Z,33.08
2022-08-28T01:49:45.981Z,51.07
2022-08-28T01:50:45.946Z,41.48
2022-08-28T01:51:45.971Z,40.84
2022-08-28T01:52:45.934Z,31.50
2022-08-28T01:53:46.632Z,37.76
2022-08-28T01:54:45.921Z,30.07
2022-08-28T01:55:45.910Z,37.81
2022-08-28T01:56:45.931Z,35.96
2022-08-28T01:58:18.401Z,36.94
2022-08-28T01:58:45.891Z,36.92
2022-08-28T01:59:45.882Z,33.18
2022-08-28T02:00:45.869Z,37.62
2022-08-28T02:01:45.955Z,32.74
2022-08-28T02:02:45.860Z,37.14
2022-08-28T02:03:45.944Z,30.52
2022-08-28T02:04:48.158Z,30.15
2022-08-28T02:05:46.840Z,40.52
2022-08-28T02:06:45.870Z,46.65
2022-08-28T02:07:45.823Z,42.27
2022-08-28T02:08:45.805Z,36.39
2022-08-28T02:09:46.816Z,35.56
2022-08-28T02:10:45.801Z,40.37
2022-08-28T02:11:46.812Z,46.21
2022-08-28T02:12:45.790Z,53.76
2022-08-28T02:13:45.778Z,41.84
2022-08-28T02:14:46.785Z,41.98
2022-08-28T02:15:45.906Z,40.42
2022-08-28T02:16:45.793Z,39.82
2022-08-28T02:17:45.747Z,36.30
2022-08-28T02:18:45.740Z,38.34
2022-08-28T02:19:45.737Z,35.88
2022-08-28T02:20:45.719Z,39.62
2022-08-28T02:21:45.731Z,46.75
2022-08-28T02:22:45.736Z,44.78
2022-08-28T02:23:45.710Z,40.08
2022-08-28T02:24:45.696Z,36.50
2022-08-28T02:25:45.692Z,42.72
2022-08-28T02:26:45.680Z,32.93
2022-08-28T02:27:45.703Z,33.57
2022-08-28T02:28:45.665Z,38.90
2022-08-28T02:29:45.663Z,30.51
2022-08-28T02:30:45.690Z,38.63
2022-08-28T02:31:45.654Z,33.47
2022-08-28T02:32:45.664Z,53.48
2022-08-28T02:33:45.629Z,53.51
2022-08-28T02:34:45.623Z,38.85
2022-08-28T02:35:45.609Z,36.66
2022-08-28T02:36:45.607Z,53.83
2022-08-28T02:37:45.638Z,38.42
2022-08-28T02:38:45.593Z,37.85
2022-08-28T02:39:45.585Z,52.53
2022-08-28T02:40:45.579Z,44.94
2022-08-28T02:41:45.568Z,35.92
2022-08-28T02:42:45.583Z,42.81
2022-08-28T02:43:45.568Z,40.56
2022-08-28T02:44:45.544Z,41.78
2022-08-28T02:45:45.569Z,51.85
2022-08-28T02:46:45.534Z,33.51
2022-08-28T02:47:45.549Z,42.58
2022-08-28T02:48:45.510Z,50.94
2022-08-28T02:49:45.505Z,51.81
2022-08-28T02:50:45.495Z,40.91
2022-08-28T02:51:45.494Z,41.31
2022-08-28T02:52:45.518Z,31.14
2022-08-28T02:53:45.477Z,37.95
2022-08-28T02:54:45.474Z,36.56
2022-08-28T02:55:45.460Z,30.85
2022-08-28T02:56:45.491Z,39.11
2022-08-28T02:57:45.464Z,50.61
2022-08-28T02:58:46.442Z,41.41
2022-08-28T02:59:45.432Z,33.57
2022-08-28T03:00:45.421Z,40.16
2022-08-28T03:01:45.458Z,54.04
2022-08-28T03:02:45.603Z,44.18
2022-08-28T03:03:45.396Z,43.79
2022-08-28T03:04:45.388Z,40.72
2022-08-28T03:05:45.387Z,42.95
2022-08-28T03:06:45.374Z,33.79
2022-08-28T03:07:45.396Z,35.27
2022-08-28T03:08:45.358Z,42.23
2022-08-28T03:09:45.345Z,32.63
2022-08-28T03:10:45.346Z,40.14
2022-08-28T03:11:45.333Z,40.20
2022-08-28T03:12:45.353Z,30.55
2022-08-28T03:13:45.316Z,37.97
2022-08-28T03:14:45.309Z,45.59
2022-08-28T03:15:45.311Z,50.77
2022-08-28T03:16:45.327Z,58.13
2022-08-28T03:17:45.312Z,43.84
2022-08-28T03:18:45.296Z,36.30
2022-08-28T03:19:45.282Z,31.76
2022-08-28T03:20:45.264Z,37.54
2022-08-28T03:21:45.258Z,42.21
2022-08-28T03:22:45.276Z,37.63
2022-08-28T03:23:45.245Z,42.10
2022-08-28T03:24:45.241Z,38.68
2022-08-28T03:25:45.235Z,39.00
2022-08-28T03:26:45.223Z,42.04
2022-08-28T03:27:45.252Z,38.68
2022-08-28T03:28:45.208Z,48.49
2022-08-28T03:29:45.203Z,34.05
2022-08-28T03:30:45.270Z,33.09
2022-08-28T03:31:45.178Z,46.09
2022-08-28T03:32:45.173Z,33.28
2022-08-28T03:33:45.190Z,41.15
2022-08-28T03:34:45.152Z,43.24
2022-08-28T03:35:45.151Z,39.92
2022-08-28T03:36:45.138Z,41.46
2022-08-28T03:37:45.162Z,42.18
2022-08-28T03:38:45.128Z,34.37
2022-08-28T03:39:45.126Z,40.14
2022-08-28T03:40:45.112Z,35.24
2022-08-28T03:41:45.103Z,42.27
2022-08-28T03:42:51.312Z,42.15
2022-08-28T03:43:46.095Z,37.00
2022-08-28T03:44:45.085Z,44.84
2022-08-28T03:45:45.125Z,40.13
2022-08-28T03:46:45.072Z,37.71
2022-08-28T03:47:45.079Z,34.01
2022-08-28T03:48:45.093Z,39.31
2022-08-28T03:49:45.042Z,47.91
2022-08-28T03:50:45.036Z,48.06
2022-08-28T03:51:45.025Z,43.52
2022-08-28T03:52:45.052Z,44.67
2022-08-28T03:53:45.018Z,32.98
2022-08-28T03:54:45.013Z,39.51
2022-08-28T03:55:44.991Z,33.83
2022-08-28T03:56:44.990Z,47.52
2022-08-28T03:57:45.005Z,41.87
2022-08-28T03:58:44.978Z,45.38
2022-08-28T03:59:44.963Z,35.71
2022-08-28T04:00:44.958Z,36.92
2022-08-28T04:01:45.004Z,40.96
2022-08-28T04:02:44.979Z,30.97
2022-08-28T04:03:45.000Z,40.70
2022-08-28T04:04:44.929Z,43.77
2022-08-28T04:05:44.917Z,40.67
2022-08-28T04:06:44.911Z,41.28
2022-08-28T04:07:44.935Z,34.65
2022-08-28T04:08:44.902Z,38.48
2022-08-28T04:09:44.883Z,40.76
2022-08-28T04:10:44.881Z,33.75
2022-08-28T04:11:44.869Z,39.80
2022-08-28T04:12:44.894Z,45.74
2022-08-28T04:13:44.851Z,44.36
2022-08-28T04:14:44.849Z,41.03
2022-08-28T04:15:44.838Z,47.09
2022-08-28T04:16:44.877Z,38.87
2022-08-28T04:17:44.866Z,41.89
2022-08-28T04:18:44.830Z,43.93
2022-08-28T04:19:44.815Z,34.10
2022-08-28T04:20:46.421Z,45.55
2022-08-28T04:21:44.806Z,48.63
2022-08-28T04:22:45.255Z,50.58
2022-08-28T04:23:44.782Z,45.43
2022-08-28T04:24:44.775Z,38.35
2022-08-28T04:25:44.764Z,50.02
2022-08-28T04:26:44.757Z,40.36
2022-08-28T04:27:44.779Z,43.22
2022-08-28T04:28:44.743Z,36.94
2022-08-28T04:29:44.737Z,45.18
2022-08-28T04:30:44.729Z,41.96
2022-08-28T04:31:44.746Z,43.84
2022-08-28T04:32:44.741Z,51.10
2022-08-28T04:33:44.707Z,47.57
2022-08-28T04:34:44.689Z,55.42
2022-08-28T04:35:44.691Z,41.47
2022-08-28T04:36:44.681Z,47.92
2022-08-28T04:37:44.674Z,52.03
2022-08-28T04:38:44.687Z,55.64
2022-08-28T04:39:44.657Z,37.61
2022-08-28T04:40:44.654Z,41.85
2022-08-28T04:41:44.635Z,45.48
2022-08-28T04:42:44.645Z,51.31
2022-08-28T04:43:44.649Z,57.51
2022-08-28T04:44:44.633Z,41.70
2022-08-28T04:45:44.678Z,46.37
2022-08-28T04:46:44.604Z,44.58
2022-08-28T04:47:44.593Z,40.53
2022-08-28T04:48:44.616Z,41.88
2022-08-28T04:49:44.585Z,46.15
2022-08-28T04:50:44.572Z,34.25
2022-08-28T04:51:44.565Z,39.57
2022-08-28T04:52:44.556Z,36.77
2022-08-28T04:53:44.576Z,47.33
2022-08-28T04:54:44.547Z,43.37
2022-08-28T04:55:53.919Z,36.99
2022-08-28T04:56:45.544Z,45.60
2022-08-28T04:57:44.518Z,38.88
2022-08-28T04:58:44.548Z,47.00
2022-08-28T04:59:44.502Z,47.30
2022-08-28T05:00:44.548Z,42.78
2022-08-28T05:01:44.499Z,34.92
2022-08-28T05:02:44.480Z,36.47
2022-08-28T05:03:44.497Z,43.71
2022-08-28T05:04:44.467Z,42.44
2022-08-28T05:05:44.462Z,49.78
2022-08-28T05:06:44.452Z,38.34
2022-08-28T05:07:45.012Z,40.89
2022-08-28T05:08:44.466Z,43.73
2022-08-28T05:09:44.431Z,37.99
2022-08-28T05:10:44.426Z,41.23
2022-08-28T05:11:44.415Z,42.10
2022-08-28T05:12:44.402Z,45.56
2022-08-28T05:13:44.426Z,52.55
2022-08-28T05:14:44.395Z,41.34
2022-08-28T05:15:44.385Z,41.03
2022-08-28T05:16:44.461Z,44.98
2022-08-28T05:17:44.373Z,48.94
2022-08-28T05:18:44.386Z,38.75
2022-08-28T05:19:44.358Z,41.92
2022-08-28T05:20:44.338Z,36.47
2022-08-28T05:21:45.340Z,39.62
2022-08-28T05:22:44.338Z,45.41
2022-08-28T05:23:44.354Z,42.00
2022-08-28T05:24:44.321Z,46.78
2022-08-28T05:25:44.316Z,38.12
2022-08-28T05:26:44.303Z,41.12
2022-08-28T05:27:44.311Z,42.65
2022-08-28T05:28:44.312Z,44.35
2022-08-28T05:29:44.277Z,46.53
2022-08-28T05:30:44.266Z,46.14
2022-08-28T05:31:44.304Z,38.55
2022-08-28T05:32:44.257Z,40.06
2022-08-28T05:33:44.275Z,38.58
2022-08-28T05:34:44.236Z,40.13
2022-08-28T05:35:44.229Z,34.05
2022-08-28T05:36:44.217Z,38.00
2022-08-28T05:37:44.213Z,43.66
2022-08-28T05:38:44.233Z,46.26
2022-08-28T05:39:44.216Z,40.57
2022-08-28T05:40:44.224Z,38.41
2022-08-28T05:41:44.202Z,38.08
2022-08-28T05:42:44.174Z,45.19
2022-08-28T05:43:44.201Z,45.22
2022-08-28T05:44:44.156Z,41.05
2022-08-28T05:45:44.222Z,43.29
2022-08-28T05:46:44.166Z,45.74
2022-08-28T05:47:44.138Z,45.77
2022-08-28T05:48:44.126Z,46.58
2022-08-28T05:49:44.434Z,44.90
2022-08-28T05:50:47.275Z,46.70
2022-08-28T05:51:44.103Z,42.97
2022-08-28T05:52:44.102Z,47.60
2022-08-28T05:53:44.087Z,42.35
2022-08-28T05:54:44.431Z,33.00
2022-08-28T05:55:44.073Z,40.02
2022-08-28T05:56:44.075Z,43.47
2022-08-28T05:57:44.058Z,54.48
2022-08-28T05:58:44.056Z,40.29
2022-08-28T05:59:44.072Z,42.22
2022-08-28T06:00:44.040Z,40.14
2022-08-28T06:01:44.113Z,42.44
2022-08-28T06:02:44.026Z,42.53
2022-08-28T06:03:44.047Z,50.15
2022-08-28T06:04:44.035Z,45.30
2022-08-28T06:05:43.999Z,48.62
2022-08-28T06:06:43.999Z,38.10
2022-08-28T06:07:43.983Z,43.68
2022-08-28T06:08:58.392Z,43.95
2022-08-28T06:09:44.999Z,39.79
2022-08-28T06:10:43.965Z,39.50
2022-08-28T06:11:46.124Z,46.98
2022-08-28T06:12:43.953Z,48.42
2022-08-28T06:13:43.950Z,42.57
2022-08-28T06:14:43.967Z,39.43
2022-08-28T06:15:44.028Z,49.73
2022-08-28T06:16:43.924Z,36.84
2022-08-28T06:17:43.919Z,47.96
2022-08-28T06:18:43.918Z,42.52
2022-08-28T06:19:43.928Z,51.59
2022-08-28T06:20:43.892Z,45.49
2022-08-28T06:21:43.889Z,41.53
2022-08-28T06:22:43.875Z,45.21
2022-08-28T06:23:43.873Z,54.17
2022-08-28T06:24:43.895Z,49.21
2022-08-28T06:25:43.873Z,50.63
2022-08-28T06:26:43.849Z,48.17
2022-08-28T06:27:43.839Z,51.37
2022-08-28T06:28:43.843Z,49.44
2022-08-28T06:29:43.846Z,58.75
2022-08-28T06:31:02.714Z,54.76
2022-08-28T06:31:45.843Z,55.71
2022-08-28T06:32:43.803Z,53.04
2022-08-28T06:33:43.791Z,43.69
2022-08-28T06:34:43.826Z,43.64
2022-08-28T06:35:43.787Z,47.73
2022-08-28T06:36:43.770Z,40.97
2022-08-28T06:37:43.761Z,50.17
2022-08-28T06:38:43.762Z,49.49
2022-08-28T06:39:43.773Z,45.51
2022-08-28T06:40:43.740Z,44.75
2022-08-28T06:41:43.732Z,43.96
2022-08-28T06:42:43.743Z,53.53
2022-08-28T06:43:43.717Z,52.34
2022-08-28T06:44:43.744Z,58.99
2022-08-28T06:45:43.718Z,50.21
2022-08-28T06:46:43.700Z,49.77
2022-08-28T06:47:43.701Z,49.73
2022-08-28T06:48:43.678Z,51.70
2022-08-28T06:49:43.701Z,41.56
2022-08-28T06:50:43.666Z,52.29
2022-08-28T06:51:43.660Z,53.71
2022-08-28T06:52:43.645Z,54.94
2022-08-28T06:53:43.646Z,51.61
2022-08-28T06:54:55.371Z,51.08
2022-08-28T06:55:44.627Z,55.27
2022-08-28T06:56:43.625Z,42.59
2022-08-28T06:57:43.616Z,49.93
2022-08-28T06:58:50.150Z,51.11
2022-08-28T06:59:44.626Z,47.69
2022-08-28T07:00:43.593Z,50.94
2022-08-28T07:01:43.642Z,49.52
2022-08-28T07:02:43.601Z,50.47
2022-08-28T07:03:44.369Z,49.18
2022-08-28T07:04:43.588Z,42.48
2022-08-28T07:05:43.551Z,51.62
2022-08-28T07:06:43.547Z,50.87
2022-08-28T07:07:43.545Z,50.99
2022-08-28T07:08:43.533Z,50.88
2022-08-28T07:09:43.562Z,50.50
2022-08-28T07:10:43.526Z,51.67
2022-08-28T07:11:43.516Z,49.86
2022-08-28T07:12:43.497Z,49.41
2022-08-28T07:13:43.503Z,51.65
2022-08-28T07:14:43.527Z,47.49
2022-08-28T07:15:43.522Z,50.26
2022-08-28T07:16:43.471Z,48.98
2022-08-28T07:17:43.475Z,51.77
2022-08-28T07:18:43.466Z,52.59
2022-08-28T07:19:43.456Z,50.28
2022-08-28T07:20:43.467Z,53.88
2022-08-28T07:21:43.539Z,46.98
2022-08-28T07:22:43.417Z,51.55
2022-08-28T07:23:43.419Z,47.94
2022-08-28T07:24:43.414Z,45.88
2022-08-28T07:25:43.435Z,53.10
2022-08-28T07:26:43.400Z,48.85
2022-08-28T07:27:43.397Z,52.76
2022-08-28T07:28:43.386Z,52.50
2022-08-28T07:29:43.400Z,50.23
2022-08-28T07:30:43.469Z,56.52
2022-08-28T07:31:43.359Z,52.62
2022-08-28T07:32:43.354Z,51.09
2022-08-28T07:33:43.345Z,54.95
2022-08-28T07:34:43.386Z,55.35
2022-08-28T07:35:43.334Z,49.77
2022-08-28T07:36:43.329Z,52.90
2022-08-28T07:37:43.308Z,51.26
2022-08-28T07:38:43.322Z,52.37
2022-08-28T07:39:43.326Z,53.60
2022-08-28T07:40:43.284Z,51.59
2022-08-28T07:41:43.329Z,50.78
2022-08-28T07:42:43.267Z,55.67
2022-08-28T07:43:43.260Z,51.53
2022-08-28T07:44:43.278Z,53.82
2022-08-28T07:45:43.306Z,54.35
2022-08-28T07:46:43.242Z,49.84
2022-08-28T07:47:43.237Z,56.10
2022-08-28T07:48:43.224Z,53.42
2022-08-28T07:49:43.245Z,48.55
2022-08-28T07:50:43.227Z,57.10
2022-08-28T07:51:43.259Z,56.58
2022-08-28T07:52:43.232Z,50.91
2022-08-28T07:53:43.196Z,54.25
2022-08-28T07:54:43.203Z,55.35
2022-08-28T07:55:43.172Z,49.93
2022-08-28T07:56:43.161Z,54.29
2022-08-28T07:58:16.048Z,49.59
2022-08-28T07:58:43.144Z,56.35
2022-08-28T07:59:43.171Z,52.90
2022-08-28T08:00:43.148Z,48.26
2022-08-28T08:01:43.203Z,52.74
2022-08-28T08:02:43.128Z,53.95
2022-08-28T08:03:43.215Z,48.30
2022-08-28T08:04:43.135Z,47.69
2022-08-28T08:05:43.094Z,50.93
2022-08-28T08:06:43.082Z,50.86
2022-08-28T08:07:43.907Z,50.73
2022-08-28T08:08:43.069Z,44.22
2022-08-28T08:09:43.096Z,47.57
2022-08-28T08:10:43.056Z,53.31
2022-08-28T08:11:43.048Z,51.71
2022-08-28T08:12:43.034Z,54.05
2022-08-28T08:13:43.031Z,55.40
2022-08-28T08:14:43.052Z,54.13
2022-08-28T08:15:44.000Z,52.25
2022-08-28T08:16:43.006Z,50.81
2022-08-28T08:17:43.003Z,52.44
2022-08-28T08:18:42.990Z,53.28
2022-08-28T08:19:43.030Z,51.39
2022-08-28T08:20:42.977Z,51.90
2022-08-28T08:21:42.968Z,54.18
2022-08-28T08:22:42.962Z,47.77
2022-08-28T08:23:42.964Z,50.40
2022-08-28T08:24:42.978Z,51.31
2022-08-28T08:25:42.932Z,47.39
2022-08-28T08:26:42.929Z,51.64
2022-08-28T08:27:43.235Z,49.97
2022-08-28T08:28:43.951Z,48.22
2022-08-28T08:29:42.904Z,46.69
2022-08-28T08:30:42.947Z,53.36
2022-08-28T08:31:42.891Z,54.02
2022-08-28T08:32:43.022Z,53.26
2022-08-28T08:33:42.877Z,52.51
2022-08-28T08:34:42.866Z,48.13
2022-08-28T08:35:42.883Z,51.92
2022-08-28T08:36:42.848Z,53.35
2022-08-28T08:37:42.841Z,50.92
2022-08-28T08:38:42.832Z,50.94
2022-08-28T08:39:42.823Z,49.83
2022-08-28T08:40:43.742Z,52.93
2022-08-28T08:41:42.810Z,56.36
2022-08-28T08:42:42.806Z,51.14
2022-08-28T08:43:42.798Z,51.10
2022-08-28T08:44:42.792Z,49.13
2022-08-28T08:45:42.802Z,44.44
2022-08-28T08:46:42.845Z,49.99
2022-08-28T08:47:42.767Z,55.54
2022-08-28T08:48:42.759Z,48.52
2022-08-28T08:49:42.755Z,47.10
2022-08-28T08:50:42.791Z,53.08
2022-08-28T08:51:42.739Z,49.68
2022-08-28T08:52:42.739Z,52.74
2022-08-28T08:53:42.753Z,53.13
2022-08-28T08:54:42.739Z,49.44
2022-08-28T08:55:42.737Z,47.68
2022-08-28T08:56:42.713Z,52.19
2022-08-28T08:57:42.691Z,52.98
2022-08-28T08:58:42.701Z,51.59
2022-08-28T08:59:42.678Z,53.80
2022-08-28T09:00:42.691Z,53.86
2022-08-28T09:01:42.697Z,47.78
2022-08-28T09:02:42.794Z,52.43
2022-08-28T09:03:44.266Z,52.09
2022-08-28T09:04:42.635Z,49.04
2022-08-28T09:05:42.650Z,53.84
2022-08-28T09:06:42.617Z,55.58
2022-08-28T09:07:42.624Z,50.99
2022-08-28T09:08:42.605Z,53.15
2022-08-28T09:09:42.605Z,57.60
2022-08-28T09:10:42.628Z,59.14
2022-08-28T09:11:42.583Z,51.03
2022-08-28T09:12:42.581Z,55.42
2022-08-28T09:13:42.564Z,59.41
2022-08-28T09:14:42.561Z,54.92
2022-08-28T09:15:42.776Z,55.30
2022-08-28T09:16:42.546Z,48.59
2022-08-28T09:17:42.627Z,53.51
2022-08-28T09:18:42.528Z,48.70
2022-08-28T09:19:42.554Z,53.14
2022-08-28T09:20:42.515Z,50.24
2022-08-28T09:21:42.507Z,54.32
2022-08-28T09:22:42.500Z,54.87
2022-08-28T09:23:42.489Z,52.95
2022-08-28T09:24:42.512Z,55.17
2022-08-28T09:25:42.475Z,48.72
2022-08-28T09:26:42.463Z,51.57
2022-08-28T09:27:42.567Z,51.84
2022-08-28T09:28:42.450Z,52.15
2022-08-28T09:29:42.442Z,47.65
2022-08-28T09:30:42.530Z,50.87
2022-08-28T09:31:42.435Z,57.80
2022-08-28T09:32:42.567Z,51.24
2022-08-28T09:33:42.411Z,55.59
2022-08-28T09:34:42.425Z,53.34
2022-08-28T09:35:42.431Z,52.32
2022-08-28T09:36:42.403Z,52.75
2022-08-28T09:37:42.390Z,53.57
2022-08-28T09:38:42.379Z,48.16
2022-08-28T09:39:45.590Z,52.41
2022-08-28T09:40:43.423Z,55.31
2022-08-28T09:41:42.361Z,51.62
2022-08-28T09:42:42.409Z,50.34
2022-08-28T09:43:42.339Z,53.39
2022-08-28T09:44:42.371Z,53.58
2022-08-28T09:45:42.349Z,51.95
2022-08-28T09:46:42.360Z,55.13
2022-08-28T09:47:46.782Z,53.56
2022-08-28T09:48:42.303Z,52.24
2022-08-28T09:49:42.311Z,52.16
2022-08-28T09:50:42.311Z,54.04
2022-08-28T09:51:42.278Z,52.61
2022-08-28T09:52:42.324Z,53.00
2022-08-28T09:53:42.261Z,58.30
2022-08-28T09:54:42.255Z,51.07
2022-08-28T09:55:42.277Z,53.12
2022-08-28T09:56:42.239Z,57.81
2022-08-28T09:57:42.236Z,53.06
2022-08-28T09:58:42.228Z,53.04
2022-08-28T09:59:42.223Z,51.30
2022-08-28T10:00:42.263Z,50.26
2022-08-28T10:01:44.835Z,53.05
2022-08-28T10:02:42.203Z,52.28
2022-08-28T10:03:42.212Z,54.15
2022-08-28T10:04:42.224Z,54.59
2022-08-28T10:05:42.199Z,55.04
2022-08-28T10:06:43.699Z,55.22
2022-08-28T10:07:42.159Z,52.46
2022-08-28T10:08:42.143Z,48.68
2022-08-28T10:09:47.872Z,56.25
2022-08-28T10:10:43.150Z,50.27
2022-08-28T10:11:44.387Z,50.81
2022-08-28T10:12:43.119Z,48.00
2022-08-28T10:13:42.104Z,55.01
2022-08-28T10:14:42.101Z,52.12
2022-08-28T10:15:43.560Z,53.94
2022-08-28T10:16:43.085Z,54.59
2022-08-28T10:17:42.088Z,51.17
2022-08-28T10:18:42.071Z,51.68
2022-08-28T10:19:42.067Z,50.77
2022-08-28T10:20:42.087Z,53.22
2022-08-28T10:21:42.048Z,49.25
2022-08-28T10:22:42.054Z,46.42
2022-08-28T10:23:42.122Z,47.30
2022-08-28T10:24:42.031Z,51.40
2022-08-28T10:25:42.042Z,51.05
2022-08-28T10:26:41.997Z,52.45
2022-08-28T10:27:43.017Z,51.69
2022-08-28T10:28:41.996Z,50.69
2022-08-28T10:29:41.992Z,50.18
2022-08-28T10:30:42.033Z,50.33
2022-08-28T10:31:41.980Z,48.46
2022-08-28T10:32:41.979Z,46.77
2022-08-28T10:33:41.953Z,52.75
2022-08-28T10:34:41.963Z,49.46
2022-08-28T10:35:41.976Z,49.79
2022-08-28T10:36:41.936Z,49.30
2022-08-28T10:37:41.927Z,50.16
2022-08-28T10:38:41.921Z,54.37
2022-08-28T10:39:41.928Z,54.71
2022-08-28T10:40:42.148Z,53.19
2022-08-28T10:41:42.519Z,51.89
2022-08-28T10:42:41.907Z,54.61
2022-08-28T10:43:41.952Z,52.94
2022-08-28T10:44:41.880Z,49.29
2022-08-28T10:45:41.883Z,47.29
2022-08-28T10:46:41.911Z,46.89
2022-08-28T10:47:41.850Z,50.13
2022-08-28T10:48:41.919Z,53.79
2022-08-28T10:49:41.853Z,52.69
2022-08-28T10:50:41.859Z,48.96
2022-08-28T10:51:44.276Z,46.46
2022-08-28T10:52:42.813Z,56.70
2022-08-28T10:53:41.799Z,55.00
2022-08-28T10:54:41.793Z,54.52
2022-08-28T10:55:41.818Z,54.85
2022-08-28T10:56:41.785Z,52.21
2022-08-28T10:57:41.777Z,54.48
2022-08-28T10:58:41.879Z,52.17
2022-08-28T10:59:42.387Z,52.29
2022-08-28T11:00:41.785Z,49.34
2022-08-28T11:01:41.890Z,52.47
2022-08-28T11:02:41.781Z,50.94
2022-08-28T11:03:41.730Z,50.97
2022-08-28T11:04:41.723Z,53.76
2022-08-28T11:05:49.432Z,53.26
2022-08-28T11:06:42.704Z,52.01
2022-08-28T11:07:41.702Z,56.30
2022-08-28T11:08:41.687Z,54.76
2022-08-28T11:09:41.690Z,53.86
2022-08-28T11:10:41.711Z,53.57
2022-08-28T11:11:41.668Z,50.93
2022-08-28T11:12:41.661Z,55.72
2022-08-28T11:13:41.649Z,54.34
2022-08-28T11:14:47.717Z,57.27
2022-08-28T11:15:42.662Z,53.47
2022-08-28T11:16:41.676Z,54.25
2022-08-28T11:17:41.626Z,49.26
2022-08-28T11:18:41.621Z,48.86
2022-08-28T11:19:44.505Z,48.77
2022-08-28T11:20:42.629Z,56.32
2022-08-28T11:21:41.611Z,50.67
2022-08-28T11:22:41.610Z,53.98
2022-08-28T11:23:41.580Z,48.62
2022-08-28T11:24:43.811Z,52.97
2022-08-28T11:25:41.588Z,54.27
2022-08-28T11:26:41.562Z,51.52
2022-08-28T11:27:41.555Z,49.68
2022-08-28T11:28:42.199Z,50.42
2022-08-28T11:29:41.531Z,49.68
2022-08-28T11:30:41.685Z,56.92
2022-08-28T11:31:41.518Z,55.26
2022-08-28T11:32:47.228Z,53.52
2022-08-28T11:33:42.501Z,52.16
2022-08-28T11:34:41.491Z,55.69
2022-08-28T11:35:41.523Z,51.57
2022-08-28T11:36:41.481Z,53.51
2022-08-28T11:37:41.473Z,53.78
2022-08-28T11:38:41.466Z,51.04
2022-08-28T11:39:41.454Z,51.80
2022-08-28T11:40:41.520Z,50.93
2022-08-28T11:41:41.466Z,50.71
2022-08-28T11:42:41.450Z,51.31
2022-08-28T11:43:41.423Z,54.36
2022-08-28T11:44:41.424Z,51.67
2022-08-28T11:45:41.476Z,49.95
2022-08-28T11:46:41.463Z,56.03
2022-08-28T11:47:41.396Z,52.63
2022-08-28T11:48:41.382Z,46.73
2022-08-28T11:49:41.379Z,46.89
2022-08-28T11:50:41.380Z,52.04
2022-08-28T11:51:41.391Z,51.79
2022-08-28T11:52:41.380Z,48.21
2022-08-28T11:53:41.365Z,52.31
2022-08-28T11:54:41.350Z,51.42
2022-08-28T11:55:41.336Z,55.76
2022-08-28T11:56:41.357Z,54.92
2022-08-28T11:57:41.322Z,54.48
2022-08-28T11:58:41.316Z,50.81
2022-08-28T11:59:41.305Z,49.95
2022-08-28T12:00:41.315Z,52.97
2022-08-28T12:01:41.322Z,49.48
2022-08-28T12:02:41.352Z,55.30
2022-08-28T12:03:41.273Z,51.33
2022-08-28T12:04:41.314Z,51.35
2022-08-28T12:05:41.270Z,45.86
2022-08-28T12:06:41.272Z,48.49
2022-08-28T12:07:41.244Z,51.17
2022-08-28T12:08:41.238Z,49.71
2022-08-28T12:09:41.335Z,50.54
2022-08-28T12:10:41.218Z,48.26
2022-08-28T12:11:41.300Z,56.21
2022-08-28T12:12:41.207Z,52.15
2022-08-28T12:13:41.199Z,54.32
2022-08-28T12:14:41.783Z,55.24
2022-08-28T12:15:41.243Z,55.48
2022-08-28T12:16:41.203Z,52.03
2022-08-28T12:17:41.164Z,55.50
2022-08-28T12:18:41.159Z,53.91
2022-08-28T12:19:52.095Z,54.07
2022-08-28T12:20:42.146Z,52.42
2022-08-28T12:21:41.159Z,53.06
2022-08-28T12:22:41.124Z,50.49
2022-08-28T12:23:41.133Z,48.12
2022-08-28T12:24:41.121Z,53.90
2022-08-28T12:25:41.101Z,54.96
2022-08-28T12:26:41.123Z,56.21
2022-08-28T12:27:41.088Z,59.15
2022-08-28T12:28:41.085Z,55.18
2022-08-28T12:29:41.074Z,51.89
2022-08-28T12:30:41.147Z,55.57
2022-08-28T12:31:41.088Z,52.49
2022-08-28T12:32:41.055Z,51.40
2022-08-28T12:33:41.049Z,52.43
2022-08-28T12:34:41.776Z,56.48
2022-08-28T12:35:43.674Z,48.49
2022-08-28T12:36:41.071Z,51.12
2022-08-28T12:37:52.480Z,52.83
2022-08-28T12:38:41.997Z,53.16
2022-08-28T12:39:42.003Z,51.20
2022-08-28T12:40:41.065Z,50.38
2022-08-28T12:41:41.014Z,57.80
2022-08-28T12:42:40.977Z,54.29
2022-08-28T12:43:46.400Z,57.24
2022-08-28T12:44:42.774Z,51.34
2022-08-28T12:45:40.994Z,49.91
2022-08-28T12:46:40.975Z,51.80
2022-08-28T12:47:40.974Z,51.50
2022-08-28T12:48:40.941Z,51.45
2022-08-28T12:49:40.931Z,48.09
2022-08-28T12:50:40.926Z,49.76
2022-08-28T12:51:40.935Z,52.23
2022-08-28T12:52:40.904Z,50.83